sensor_id;sensor_type;location;lat;lon;timestamp;temperature;humidity
5697;DHT22;2873;50.966;7.210;2023-04-01T00:00:16;10.60;99.90
5697;DHT22;2873;50.966;7.210;2023-04-01T00:02:42;10.60;99.90
5697;DHT22;2873;50.966;7.210;2023-04-01T00:05:09;10.60;99.90
5697;DHT22;2873;50.966;7.210;2023-04-01T00:07:38;10.60;99.90
5697;DHT22;2873;50.966;7.210;2023-04-01T00:10:08;10.60;99.90
5697;DHT22;2873;50.966;7.210;2023-04-01T00:12:36;10.60;99.90
5697;DHT22;2873;50.966;7.210;2023-04-01T00:15:02;10.60;99.90
5697;DHT22;2873;50.966;7.210;2023-04-01T00:17:28;10.70;99.90
5697;DHT22;2873;50.966;7.210;2023-04-01T00:19:57;10.70;99.90
5697;DHT22;2873;50.966;7.210;2023-04-01T00:22:23;10.70;99.90
5697;DHT22;2873;50.966;7.210;2023-04-01T00:24:50;10.70;99.90
5697;DHT22;2873;50.966;7.210;2023-04-01T00:27:15;10.80;99.90
5697;DHT22;2873;50.966;7.210;2023-04-01T00:29:42;10.80;99.90
5697;DHT22;2873;50.966;7.210;2023-04-01T00:32:08;10.60;99.90
5697;DHT22;2873;50.966;7.210;2023-04-01T00:34:34;10.70;99.90
5697;DHT22;2873;50.966;7.210;2023-04-01T00:36:59;10.80;99.90
5697;DHT22;2873;50.966;7.210;2023-04-01T00:39:25;10.60;99.90
5697;DHT22;2873;50.966;7.210;2023-04-01T00:41:53;10.70;99.90
5697;DHT22;2873;50.966;7.210;2023-04-01T00:44:24;10.60;99.90
5697;DHT22;2873;50.966;7.210;2023-04-01T00:46:50;10.60;99.90
5697;DHT22;2873;50.966;7.210;2023-04-01T00:49:20;10.50;99.90
5697;DHT22;2873;50.966;7.210;2023-04-01T00:51:49;10.60;99.90
5697;DHT22;2873;50.966;7.210;2023-04-01T00:54:16;10.70;99.90
5697;DHT22;2873;50.966;7.210;2023-04-01T00:56:49;10.60;99.90
5697;DHT22;2873;50.966;7.210;2023-04-01T00:59:31;10.60;99.90
5697;DHT22;2873;50.966;7.210;2023-04-01T01:02:02;10.50;99.90
5697;DHT22;2873;50.966;7.210;2023-04-01T01:04:31;10.50;99.90
5697;DHT22;2873;50.966;7.210;2023-04-01T01:09:45;10.40;99.90
5697;DHT22;2873;50.966;7.210;2023-04-01T01:12:29;10.60;99.90
5697;DHT22;2873;50.966;7.210;2023-04-01T01:15:13;10.70;99.90
5697;DHT22;2873;50.966;7.210;2023-04-01T01:25:52;10.60;99.90
5697;DHT22;2873;50.966;7.210;2023-04-01T01:31:44;10.70;99.90
5697;DHT22;2873;50.966;7.210;2023-04-01T01:37:17;10.60;99.90
5697;DHT22;2873;50.966;7.210;2023-04-01T01:39:56;10.70;99.90
5697;DHT22;2873;50.966;7.210;2023-04-01T01:42:25;10.60;99.90
5697;DHT22;2873;50.966;7.210;2023-04-01T01:44:52;10.70;99.90
5697;DHT22;2873;50.966;7.210;2023-04-01T01:47:19;10.60;99.90
5697;DHT22;2873;50.966;7.210;2023-04-01T01:49:47;10.70;99.90
5697;DHT22;2873;50.966;7.210;2023-04-01T01:52:13;10.60;99.90
5697;DHT22;2873;50.966;7.210;2023-04-01T01:54:53;10.50;99.90
5697;DHT22;2873;50.966;7.210;2023-04-01T01:57:26;10.40;99.90
5697;DHT22;2873;50.966;7.210;2023-04-01T01:59:55;10.50;99.90
5697;DHT22;2873;50.966;7.210;2023-04-01T02:02:22;10.40;99.90
5697;DHT22;2873;50.966;7.210;2023-04-01T02:04:49;10.40;99.90
5697;DHT22;2873;50.966;7.210;2023-04-01T02:07:19;10.30;99.90
5697;DHT22;2873;50.966;7.210;2023-04-01T02:09:45;10.30;99.90
5697;DHT22;2873;50.966;7.210;2023-04-01T02:12:13;10.30;99.90
5697;DHT22;2873;50.966;7.210;2023-04-01T02:14:44;10.30;99.90
5697;DHT22;2873;50.966;7.210;2023-04-01T02:17:14;10.20;99.90
5697;DHT22;2873;50.966;7.210;2023-04-01T02:19:50;10.40;99.90
5697;DHT22;2873;50.966;7.210;2023-04-01T02:22:23;10.30;99.90
5697;DHT22;2873;50.966;7.210;2023-04-01T02:24:52;10.10;99.90
5697;DHT22;2873;50.966;7.210;2023-04-01T02:27:20;10.10;99.90
5697;DHT22;2873;50.966;7.210;2023-04-01T02:29:45;10.20;99.90
5697;DHT22;2873;50.966;7.210;2023-04-01T02:32:13;9.90;99.90
5697;DHT22;2873;50.966;7.210;2023-04-01T02:34:38;10.00;99.90
5697;DHT22;2873;50.966;7.210;2023-04-01T02:37:04;10.20;99.90
5697;DHT22;2873;50.966;7.210;2023-04-01T02:39:30;10.20;99.90
5697;DHT22;2873;50.966;7.210;2023-04-01T02:41:56;10.00;99.90
5697;DHT22;2873;50.966;7.210;2023-04-01T02:44:21;10.00;99.90
5697;DHT22;2873;50.966;7.210;2023-04-01T02:46:47;10.00;99.90
5697;DHT22;2873;50.966;7.210;2023-04-01T02:49:12;9.90;99.90
5697;DHT22;2873;50.966;7.210;2023-04-01T02:51:38;9.90;99.90
5697;DHT22;2873;50.966;7.210;2023-04-01T02:54:04;10.00;99.90
5697;DHT22;2873;50.966;7.210;2023-04-01T02:56:29;10.00;99.90
5697;DHT22;2873;50.966;7.210;2023-04-01T02:58:55;10.00;99.90
5697;DHT22;2873;50.966;7.210;2023-04-01T03:01:21;10.00;99.90
5697;DHT22;2873;50.966;7.210;2023-04-01T03:03:46;10.00;99.90
5697;DHT22;2873;50.966;7.210;2023-04-01T03:06:15;9.90;99.90
5697;DHT22;2873;50.966;7.210;2023-04-01T03:08:40;10.00;99.90
5697;DHT22;2873;50.966;7.210;2023-04-01T03:11:06;10.00;99.90
5697;DHT22;2873;50.966;7.210;2023-04-01T03:13:32;10.00;99.90
5697;DHT22;2873;50.966;7.210;2023-04-01T03:15:58;10.00;99.90
5697;DHT22;2873;50.966;7.210;2023-04-01T03:18:24;9.90;99.90
5697;DHT22;2873;50.966;7.210;2023-04-01T03:20:49;9.80;99.90
5697;DHT22;2873;50.966;7.210;2023-04-01T03:23:15;9.90;99.90
5697;DHT22;2873;50.966;7.210;2023-04-01T03:25:42;9.90;99.90
5697;DHT22;2873;50.966;7.210;2023-04-01T03:28:08;10.00;99.90
5697;DHT22;2873;50.966;7.210;2023-04-01T03:30:34;9.80;99.90
5697;DHT22;2873;50.966;7.210;2023-04-01T03:32:59;9.90;99.90
5697;DHT22;2873;50.966;7.210;2023-04-01T03:35:26;9.90;99.90
5697;DHT22;2873;50.966;7.210;2023-04-01T03:37:52;9.90;99.90
5697;DHT22;2873;50.966;7.210;2023-04-01T03:40:19;9.90;99.90
5697;DHT22;2873;50.966;7.210;2023-04-01T03:42:45;9.90;99.90
5697;DHT22;2873;50.966;7.210;2023-04-01T03:45:10;9.90;99.90
5697;DHT22;2873;50.966;7.210;2023-04-01T03:47:37;9.90;99.90
5697;DHT22;2873;50.966;7.210;2023-04-01T03:50:04;9.90;99.90
5697;DHT22;2873;50.966;7.210;2023-04-01T03:52:30;9.90;99.90
5697;DHT22;2873;50.966;7.210;2023-04-01T03:54:56;10.00;99.90
5697;DHT22;2873;50.966;7.210;2023-04-01T03:57:21;10.00;99.90
5697;DHT22;2873;50.966;7.210;2023-04-01T03:59:47;10.10;99.90
5697;DHT22;2873;50.966;7.210;2023-04-01T04:02:13;10.10;99.90
5697;DHT22;2873;50.966;7.210;2023-04-01T04:04:38;10.00;99.90
5697;DHT22;2873;50.966;7.210;2023-04-01T04:07:04;10.00;99.90
5697;DHT22;2873;50.966;7.210;2023-04-01T04:09:30;10.20;99.90
5697;DHT22;2873;50.966;7.210;2023-04-01T04:11:56;10.20;99.90
5697;DHT22;2873;50.966;7.210;2023-04-01T04:14:23;10.10;99.90
5697;DHT22;2873;50.966;7.210;2023-04-01T04:16:48;10.20;99.90
5697;DHT22;2873;50.966;7.210;2023-04-01T04:19:14;10.30;99.90
5697;DHT22;2873;50.966;7.210;2023-04-01T04:21:40;10.30;99.90
5697;DHT22;2873;50.966;7.210;2023-04-01T04:24:06;10.30;99.90
5697;DHT22;2873;50.966;7.210;2023-04-01T04:26:32;10.30;99.90
5697;DHT22;2873;50.966;7.210;2023-04-01T04:28:57;10.20;99.90
5697;DHT22;2873;50.966;7.210;2023-04-01T04:31:24;10.10;99.90
5697;DHT22;2873;50.966;7.210;2023-04-01T04:33:50;10.30;99.90
5697;DHT22;2873;50.966;7.210;2023-04-01T04:36:17;10.30;99.90
5697;DHT22;2873;50.966;7.210;2023-04-01T04:38:42;10.20;99.90
5697;DHT22;2873;50.966;7.210;2023-04-01T04:41:13;10.10;99.90
5697;DHT22;2873;50.966;7.210;2023-04-01T04:43:42;10.20;99.90
5697;DHT22;2873;50.966;7.210;2023-04-01T04:46:13;10.10;99.90
5697;DHT22;2873;50.966;7.210;2023-04-01T04:48:38;10.20;99.90
5697;DHT22;2873;50.966;7.210;2023-04-01T04:51:04;10.10;99.90
5697;DHT22;2873;50.966;7.210;2023-04-01T04:53:30;10.00;99.90
5697;DHT22;2873;50.966;7.210;2023-04-01T04:55:55;10.00;99.90
5697;DHT22;2873;50.966;7.210;2023-04-01T04:58:21;10.10;99.90
5697;DHT22;2873;50.966;7.210;2023-04-01T05:00:47;10.10;99.90
5697;DHT22;2873;50.966;7.210;2023-04-01T05:03:12;10.10;99.90
5697;DHT22;2873;50.966;7.210;2023-04-01T05:05:38;10.10;99.90
5697;DHT22;2873;50.966;7.210;2023-04-01T05:08:04;10.00;99.90
5697;DHT22;2873;50.966;7.210;2023-04-01T05:10:30;10.00;99.90
5697;DHT22;2873;50.966;7.210;2023-04-01T05:12:57;9.90;99.90
5697;DHT22;2873;50.966;7.210;2023-04-01T05:15:23;9.70;99.90
5697;DHT22;2873;50.966;7.210;2023-04-01T05:17:48;9.70;99.90
5697;DHT22;2873;50.966;7.210;2023-04-01T05:20:14;9.80;99.90
5697;DHT22;2873;50.966;7.210;2023-04-01T05:22:40;9.70;99.90
5697;DHT22;2873;50.966;7.210;2023-04-01T05:25:06;9.70;99.90
5697;DHT22;2873;50.966;7.210;2023-04-01T05:27:32;9.70;99.90
5697;DHT22;2873;50.966;7.210;2023-04-01T05:29:58;9.80;99.90
5697;DHT22;2873;50.966;7.210;2023-04-01T05:32:23;9.90;99.90
5697;DHT22;2873;50.966;7.210;2023-04-01T05:34:52;9.80;99.90
5697;DHT22;2873;50.966;7.210;2023-04-01T05:37:18;9.80;99.90
5697;DHT22;2873;50.966;7.210;2023-04-01T05:39:44;9.90;99.90
5697;DHT22;2873;50.966;7.210;2023-04-01T05:42:09;10.00;99.90
5697;DHT22;2873;50.966;7.210;2023-04-01T05:44:35;9.90;99.90
5697;DHT22;2873;50.966;7.210;2023-04-01T05:47:02;10.00;99.90
5697;DHT22;2873;50.966;7.210;2023-04-01T05:49:28;10.20;99.90
5697;DHT22;2873;50.966;7.210;2023-04-01T05:51:53;10.10;99.90
5697;DHT22;2873;50.966;7.210;2023-04-01T05:54:19;10.00;99.90
5697;DHT22;2873;50.966;7.210;2023-04-01T05:56:45;10.00;99.90
5697;DHT22;2873;50.966;7.210;2023-04-01T05:59:11;10.10;99.90
5697;DHT22;2873;50.966;7.210;2023-04-01T06:01:37;10.10;99.90
5697;DHT22;2873;50.966;7.210;2023-04-01T06:04:03;10.10;99.90
5697;DHT22;2873;50.966;7.210;2023-04-01T06:06:30;10.20;99.90
5697;DHT22;2873;50.966;7.210;2023-04-01T06:09:06;10.20;99.90
5697;DHT22;2873;50.966;7.210;2023-04-01T06:14:49;10.20;99.90
5697;DHT22;2873;50.966;7.210;2023-04-01T06:23:24;10.10;99.90
5697;DHT22;2873;50.966;7.210;2023-04-01T06:35:15;10.20;99.90
5697;DHT22;2873;50.966;7.210;2023-04-01T06:46:34;10.20;99.90
5697;DHT22;2873;50.966;7.210;2023-04-01T06:49:49;10.20;99.90
5697;DHT22;2873;50.966;7.210;2023-04-01T06:52:17;10.30;99.90
5697;DHT22;2873;50.966;7.210;2023-04-01T06:55:16;10.10;99.90
5697;DHT22;2873;50.966;7.210;2023-04-01T06:57:47;10.20;99.90
5697;DHT22;2873;50.966;7.210;2023-04-01T07:00:23;10.10;99.90
5697;DHT22;2873;50.966;7.210;2023-04-01T07:02:57;10.30;99.90
5697;DHT22;2873;50.966;7.210;2023-04-01T07:05:29;10.40;99.90
5697;DHT22;2873;50.966;7.210;2023-04-01T07:07:59;10.40;99.90
5697;DHT22;2873;50.966;7.210;2023-04-01T07:13:31;10.00;99.90
5697;DHT22;2873;50.966;7.210;2023-04-01T07:16:16;10.40;99.90
5697;DHT22;2873;50.966;7.210;2023-04-01T07:18:58;10.50;99.90
5697;DHT22;2873;50.966;7.210;2023-04-01T07:21:34;10.30;99.90
5697;DHT22;2873;50.966;7.210;2023-04-01T07:24:29;10.50;99.90
5697;DHT22;2873;50.966;7.210;2023-04-01T07:26:57;10.50;99.90
5697;DHT22;2873;50.966;7.210;2023-04-01T07:29:25;10.30;99.90
5697;DHT22;2873;50.966;7.210;2023-04-01T07:31:57;10.30;99.90
5697;DHT22;2873;50.966;7.210;2023-04-01T07:34:26;10.50;99.90
5697;DHT22;2873;50.966;7.210;2023-04-01T07:37:30;10.60;99.90
5697;DHT22;2873;50.966;7.210;2023-04-01T07:40:22;10.60;99.90
5697;DHT22;2873;50.966;7.210;2023-04-01T07:45:34;10.60;99.90
5697;DHT22;2873;50.966;7.210;2023-04-01T07:54:04;10.50;99.90
5697;DHT22;2873;50.966;7.210;2023-04-01T08:07:18;10.70;99.90
5697;DHT22;2873;50.966;7.210;2023-04-01T08:15:38;10.80;99.90
5697;DHT22;2873;50.966;7.210;2023-04-01T08:20:52;10.60;99.90
5697;DHT22;2873;50.966;7.210;2023-04-01T08:25:58;10.70;99.90
5697;DHT22;2873;50.966;7.210;2023-04-01T08:28:30;10.70;99.90
5697;DHT22;2873;50.966;7.210;2023-04-01T08:31:05;10.70;99.90
5697;DHT22;2873;50.966;7.210;2023-04-01T08:33:33;10.60;99.90
5697;DHT22;2873;50.966;7.210;2023-04-01T08:36:05;10.50;99.90
5697;DHT22;2873;50.966;7.210;2023-04-01T08:38:40;10.50;99.90
5697;DHT22;2873;50.966;7.210;2023-04-01T08:41:29;10.60;99.90
5697;DHT22;2873;50.966;7.210;2023-04-01T08:49:45;10.60;99.90
5697;DHT22;2873;50.966;7.210;2023-04-01T08:55:14;10.50;99.90
5697;DHT22;2873;50.966;7.210;2023-04-01T08:58:11;10.70;99.90
5697;DHT22;2873;50.966;7.210;2023-04-01T09:00:33;10.70;99.90
5697;DHT22;2873;50.966;7.210;2023-04-01T09:15:21;10.60;99.90
5697;DHT22;2873;50.966;7.210;2023-04-01T09:18:11;10.40;99.90
5697;DHT22;2873;50.966;7.210;2023-04-01T09:23:28;10.50;99.90
5697;DHT22;2873;50.966;7.210;2023-04-01T09:29:02;10.40;99.90
5697;DHT22;2873;50.966;7.210;2023-04-01T09:31:54;10.30;99.90
5697;DHT22;2873;50.966;7.210;2023-04-01T09:51:03;10.40;99.90
5697;DHT22;2873;50.966;7.210;2023-04-01T09:53:48;10.50;99.90
5697;DHT22;2873;50.966;7.210;2023-04-01T10:00:05;10.50;99.90
5697;DHT22;2873;50.966;7.210;2023-04-01T10:03:21;10.50;99.90
5697;DHT22;2873;50.966;7.210;2023-04-01T10:28:07;10.70;99.90
5697;DHT22;2873;50.966;7.210;2023-04-01T10:31:02;10.70;99.90
5697;DHT22;2873;50.966;7.210;2023-04-01T10:56:35;11.00;99.90
5697;DHT22;2873;50.966;7.210;2023-04-01T11:24:30;11.20;99.90
5697;DHT22;2873;50.966;7.210;2023-04-01T11:27:18;11.10;99.90
5697;DHT22;2873;50.966;7.210;2023-04-01T11:33:03;11.20;99.90
5697;DHT22;2873;50.966;7.210;2023-04-01T11:44:15;11.30;99.90
5697;DHT22;2873;50.966;7.210;2023-04-01T11:52:25;11.30;99.90
5697;DHT22;2873;50.966;7.210;2023-04-01T12:06:16;11.00;99.90
5697;DHT22;2873;50.966;7.210;2023-04-01T12:14:17;11.40;99.90
5697;DHT22;2873;50.966;7.210;2023-04-01T12:17:02;11.50;99.90
5697;DHT22;2873;50.966;7.210;2023-04-01T12:19:51;11.50;99.90
5697;DHT22;2873;50.966;7.210;2023-04-01T12:22:34;11.40;99.90
5697;DHT22;2873;50.966;7.210;2023-04-01T12:28:02;11.50;99.90
5697;DHT22;2873;50.966;7.210;2023-04-01T12:36:53;11.50;99.90
5697;DHT22;2873;50.966;7.210;2023-04-01T12:52:49;11.50;99.90
5697;DHT22;2873;50.966;7.210;2023-04-01T12:55:44;11.60;99.90
5697;DHT22;2873;50.966;7.210;2023-04-01T13:01:19;11.70;99.90
5697;DHT22;2873;50.966;7.210;2023-04-01T13:06:57;11.60;99.90
5697;DHT22;2873;50.966;7.210;2023-04-01T13:20:57;11.70;99.90
5697;DHT22;2873;50.966;7.210;2023-04-01T13:23:45;11.60;99.90
5697;DHT22;2873;50.966;7.210;2023-04-01T13:26:27;11.70;99.90
5697;DHT22;2873;50.966;7.210;2023-04-01T13:29:08;11.50;99.90
5697;DHT22;2873;50.966;7.210;2023-04-01T13:39:27;11.50;99.90
5697;DHT22;2873;50.966;7.210;2023-04-01T13:45:10;11.60;99.90
5697;DHT22;2873;50.966;7.210;2023-04-01T13:50:37;11.60;99.90
5697;DHT22;2873;50.966;7.210;2023-04-01T14:11:10;11.50;99.90
5697;DHT22;2873;50.966;7.210;2023-04-01T14:44:29;11.60;99.90
5697;DHT22;2873;50.966;7.210;2023-04-01T14:47:14;11.70;99.90
5697;DHT22;2873;50.966;7.210;2023-04-01T14:49:43;11.70;99.90
5697;DHT22;2873;50.966;7.210;2023-04-01T14:54:46;11.80;99.90
5697;DHT22;2873;50.966;7.210;2023-04-01T14:59:51;11.90;99.90
5697;DHT22;2873;50.966;7.210;2023-04-01T15:11:21;11.60;99.90
5697;DHT22;2873;50.966;7.210;2023-04-01T15:13:59;11.70;99.90
5697;DHT22;2873;50.966;7.210;2023-04-01T15:19:15;11.70;99.90
5697;DHT22;2873;50.966;7.210;2023-04-01T15:22:06;11.70;99.90
5697;DHT22;2873;50.966;7.210;2023-04-01T15:25:10;11.70;99.90
5697;DHT22;2873;50.966;7.210;2023-04-01T15:34:06;11.60;99.90
5697;DHT22;2873;50.966;7.210;2023-04-01T15:36:57;11.70;99.90
5697;DHT22;2873;50.966;7.210;2023-04-01T15:39:42;11.60;99.90
5697;DHT22;2873;50.966;7.210;2023-04-01T15:44:56;11.70;99.90
5697;DHT22;2873;50.966;7.210;2023-04-01T15:55:26;11.30;99.90
5697;DHT22;2873;50.966;7.210;2023-04-01T16:01:14;11.40;99.90
5697;DHT22;2873;50.966;7.210;2023-04-01T16:12:15;11.40;99.90
5697;DHT22;2873;50.966;7.210;2023-04-01T16:29:28;11.40;99.90
5697;DHT22;2873;50.966;7.210;2023-04-01T16:34:47;11.40;99.90
5697;DHT22;2873;50.966;7.210;2023-04-01T16:38:15;11.40;99.90
5697;DHT22;2873;50.966;7.210;2023-04-01T16:46:26;11.30;99.90
5697;DHT22;2873;50.966;7.210;2023-04-01T16:51:32;11.40;99.90
5697;DHT22;2873;50.966;7.210;2023-04-01T16:54:11;11.30;99.90
5697;DHT22;2873;50.966;7.210;2023-04-01T16:56:49;11.20;99.90
5697;DHT22;2873;50.966;7.210;2023-04-01T16:59:33;11.30;99.90
5697;DHT22;2873;50.966;7.210;2023-04-01T17:04:47;11.40;99.90
5697;DHT22;2873;50.966;7.210;2023-04-01T17:15:46;11.20;99.90
5697;DHT22;2873;50.966;7.210;2023-04-01T17:21:02;11.10;99.90
5697;DHT22;2873;50.966;7.210;2023-04-01T17:26:49;11.00;99.90
5697;DHT22;2873;50.966;7.210;2023-04-01T17:29:57;11.10;99.90
5697;DHT22;2873;50.966;7.210;2023-04-01T17:35:32;11.00;99.90
5697;DHT22;2873;50.966;7.210;2023-04-01T17:58:18;11.20;99.90
5697;DHT22;2873;50.966;7.210;2023-04-01T18:12:18;10.90;99.90
5697;DHT22;2873;50.966;7.210;2023-04-01T18:25:53;10.90;99.90
5697;DHT22;2873;50.966;7.210;2023-04-01T18:28:41;10.90;99.90
5697;DHT22;2873;50.966;7.210;2023-04-01T18:31:19;11.00;99.90
5697;DHT22;2873;50.966;7.210;2023-04-01T18:36:33;10.90;99.90
5697;DHT22;2873;50.966;7.210;2023-04-01T18:39:10;11.10;99.90
5697;DHT22;2873;50.966;7.210;2023-04-01T18:44:46;10.90;99.90
5697;DHT22;2873;50.966;7.210;2023-04-01T18:53:15;10.90;99.90
5697;DHT22;2873;50.966;7.210;2023-04-01T18:55:49;10.90;99.90
5697;DHT22;2873;50.966;7.210;2023-04-01T18:58:23;11.00;99.90
5697;DHT22;2873;50.966;7.210;2023-04-01T19:01:04;11.00;99.90
5697;DHT22;2873;50.966;7.210;2023-04-01T19:06:19;10.90;99.90
5697;DHT22;2873;50.966;7.210;2023-04-01T19:08:46;10.90;99.90
5697;DHT22;2873;50.966;7.210;2023-04-01T19:11:40;10.90;99.90
5697;DHT22;2873;50.966;7.210;2023-04-01T19:14:45;10.90;99.90
5697;DHT22;2873;50.966;7.210;2023-04-01T19:20:07;10.80;99.90
5697;DHT22;2873;50.966;7.210;2023-04-01T19:22:49;10.80;99.90
5697;DHT22;2873;50.966;7.210;2023-04-01T19:25:46;10.70;99.90
5697;DHT22;2873;50.966;7.210;2023-04-01T19:36:52;10.70;99.90
5697;DHT22;2873;50.966;7.210;2023-04-01T19:39:50;10.70;99.90
5697;DHT22;2873;50.966;7.210;2023-04-01T19:42:46;10.60;99.90
5697;DHT22;2873;50.966;7.210;2023-04-01T19:45:41;10.70;99.90
5697;DHT22;2873;50.966;7.210;2023-04-01T19:50:46;10.70;99.90
5697;DHT22;2873;50.966;7.210;2023-04-01T19:53:19;10.70;99.90
5697;DHT22;2873;50.966;7.210;2023-04-01T20:07:10;10.30;99.90
5697;DHT22;2873;50.966;7.210;2023-04-01T20:10:04;10.20;99.90
5697;DHT22;2873;50.966;7.210;2023-04-01T20:12:35;10.40;99.90
5697;DHT22;2873;50.966;7.210;2023-04-01T20:17:52;10.50;99.90
5697;DHT22;2873;50.966;7.210;2023-04-01T20:20:21;10.50;99.90
5697;DHT22;2873;50.966;7.210;2023-04-01T20:23:06;10.60;99.90
5697;DHT22;2873;50.966;7.210;2023-04-01T20:25:46;10.60;99.90
5697;DHT22;2873;50.966;7.210;2023-04-01T20:31:10;10.50;99.90
5697;DHT22;2873;50.966;7.210;2023-04-01T20:36:36;10.50;99.90
5697;DHT22;2873;50.966;7.210;2023-04-01T20:44:36;10.40;99.90
5697;DHT22;2873;50.966;7.210;2023-04-01T20:47:28;10.50;99.90
5697;DHT22;2873;50.966;7.210;2023-04-01T20:53:12;10.40;99.90
5697;DHT22;2873;50.966;7.210;2023-04-01T20:58:48;10.50;99.90
5697;DHT22;2873;50.966;7.210;2023-04-01T21:26:31;10.70;99.90
5697;DHT22;2873;50.966;7.210;2023-04-01T21:35:51;10.70;99.90
5697;DHT22;2873;50.966;7.210;2023-04-01T21:38:35;10.80;99.90
5697;DHT22;2873;50.966;7.210;2023-04-01T21:44:13;10.70;99.90
5697;DHT22;2873;50.966;7.210;2023-04-01T22:05:35;10.50;99.90
5697;DHT22;2873;50.966;7.210;2023-04-01T22:11:04;10.40;99.90
5697;DHT22;2873;50.966;7.210;2023-04-01T22:16:42;10.40;99.90
5697;DHT22;2873;50.966;7.210;2023-04-01T22:19:42;10.40;99.90
5697;DHT22;2873;50.966;7.210;2023-04-01T22:22:52;10.40;99.90
5697;DHT22;2873;50.966;7.210;2023-04-01T22:25:59;10.40;99.90
5697;DHT22;2873;50.966;7.210;2023-04-01T22:31:55;10.50;99.90
5697;DHT22;2873;50.966;7.210;2023-04-01T22:42:52;10.30;99.90
5697;DHT22;2873;50.966;7.210;2023-04-01T22:48:36;10.30;99.90
5697;DHT22;2873;50.966;7.210;2023-04-01T22:51:18;10.30;99.90
5697;DHT22;2873;50.966;7.210;2023-04-01T22:56:40;10.30;99.90
5697;DHT22;2873;50.966;7.210;2023-04-01T22:59:09;10.30;99.90
5697;DHT22;2873;50.966;7.210;2023-04-01T23:01:42;10.30;99.90
5697;DHT22;2873;50.966;7.210;2023-04-01T23:04:12;10.30;99.90
5697;DHT22;2873;50.966;7.210;2023-04-01T23:06:46;10.40;99.90
5697;DHT22;2873;50.966;7.210;2023-04-01T23:09:34;10.40;99.90
5697;DHT22;2873;50.966;7.210;2023-04-01T23:12:07;10.50;99.90
5697;DHT22;2873;50.966;7.210;2023-04-01T23:20:11;10.50;99.90
5697;DHT22;2873;50.966;7.210;2023-04-01T23:25:55;10.50;99.90
5697;DHT22;2873;50.966;7.210;2023-04-01T23:28:53;10.50;99.90
5697;DHT22;2873;50.966;7.210;2023-04-01T23:31:43;10.60;99.90
5697;DHT22;2873;50.966;7.210;2023-04-01T23:36:49;10.70;99.90
5697;DHT22;2873;50.966;7.210;2023-04-01T23:39:29;10.60;99.90
5697;DHT22;2873;50.966;7.210;2023-04-01T23:42:41;10.60;99.90
5697;DHT22;2873;50.966;7.210;2023-04-01T23:45:14;10.70;99.90
5697;DHT22;2873;50.966;7.210;2023-04-01T23:47:48;10.80;99.90
5697;DHT22;2873;50.966;7.210;2023-04-01T23:50:18;10.90;99.90
5697;DHT22;2873;50.966;7.210;2023-04-01T23:56:07;10.90;99.90
5697;DHT22;2873;50.966;7.210;2023-04-01T23:58:41;11.00;99.90
